Latest Weather Observations for Stenhouse Bay

IDS60801

Issued at 10:11 pm CST Sunday 21 July 2019 (issued every 10 minutes, with the page automatically refreshed every 10 minutes)

About weather observations | Map of weather stations | Latest weather observations for SA | Other Formats
Station Details ID: 022049 Name: STENHOUSE BAY Lat: -35.28 Lon: 136.94 Height: 42.0 m
Data from the previous 72 hours. | See also: Recent months at Stenhouse Bay
Date/Time
CST
Temp
°C
App
Temp
°C
Dew
Point
°C
Rel
Hum
%
Delta-T
°C
Wind Press
QNH
hPa
Press
MSL
hPa
Rain since
9am
mm
Dir  Spd
km/h
Gust
km/h
Spd
kts
Gust
kts
21/10:00pm 12.8 7.6 8.9 77 2.0 NNW 26 41 14 22 1011.9 1011.9 0.2
21/09:30pm 13.0 7.5 9.3 78 1.9 NW 28 41 15 22 1012.0 1012.0 0.2
21/09:00pm 13.1 8.1 9.7 80 1.7 NW 26 37 14 20 1012.3 1012.3 0.2
21/08:30pm 13.3 8.0 9.7 79 1.8 NW 28 39 15 21 1012.3 1012.3 0.2
21/08:00pm 12.9 9.2 9.4 79 1.8 NW 19 28 10 15 1012.6 1012.6 0.2
21/07:30pm 13.2 8.5 9.1 76 2.1 NW 24 33 13 18 1012.7 1012.7 0.2
21/07:00pm 13.9 9.9 9.1 73 2.4 NW 20 32 11 17 1012.6 1012.6 0.2
21/06:30pm 13.7 9.3 9.0 73 2.4 NW 22 35 12 19 1012.3 1012.3 0.2
21/06:00pm 13.8 9.3 8.6 71 2.6 NW 22 32 12 17 1012.2 1012.2 0.2
21/05:30pm 14.4 10.4 9.0 70 2.8 NW 20 28 11 15 1012.0 1012.0 0.2
21/05:00pm 14.3 9.4 8.5 68 2.9 NW 24 35 13 19 1011.9 1011.9 0.2
21/04:30pm 14.8 10.4 9.0 68 3.0 NW 22 30 12 16 1011.9 1011.9 0.2
21/04:00pm 15.2 11.3 9.3 68 3.0 NW 20 30 11 16 1011.7 1011.7 0.2
21/03:30pm 15.1 11.0 8.8 66 3.2 NW 20 30 11 16 1011.7 1011.7 0.2
21/03:00pm 15.8 10.8 9.7 67 3.2 NNW 26 35 14 19 1011.7 1011.7 0.2
21/02:30pm 15.6 10.2 9.5 67 3.2 NW 28 35 15 19 1011.8 1011.8 0.2
21/02:00pm 15.3 10.5 9.0 66 3.2 NNW 24 33 13 18 1011.8 1011.8 0.2
21/01:30pm 15.7 10.7 9.6 67 3.2 NW 26 39 14 21 1011.8 1011.8 0.2
21/01:00pm 15.4 9.5 9.1 66 3.2 NW 30 43 16 23 1012.1 1012.1 0.2
21/12:30pm 15.6 10.3 8.4 62 3.7 NW 26 37 14 20 1012.6 1012.6 0.2
21/12:00pm 15.3 9.6 8.5 64 3.4 NW 28 39 15 21 1012.9 1012.9 0.2
21/11:30am 14.6 9.8 9.0 69 2.9 NW 24 33 13 18 1013.2 1013.2 0.2
21/11:00am 14.6 9.8 8.8 68 2.9 NW 24 37 13 20 1013.2 1013.2 0.2
21/10:30am 13.8 9.3 8.4 70 2.7 NW 22 35 12 19 1013.4 1013.4 0.2
21/10:00am 13.0 9.6 9.3 78 1.9 NW 17 26 9 14 1013.3 1013.3 0.2
21/09:30am 11.7 9.3 9.9 89 0.9 WNW 13 19 7 10 1013.2 1013.2 0.2
21/09:00am 10.1 5.1 8.2 88 0.9 WNW 24 44 13 24 1013.3 1013.3 1.8
21/08:30am 11.4 7.3 7.7 78 1.8 W 19 39 10 21 1013.1 1013.1 0.4
21/08:00am 10.6 7.2 5.8 72 2.2 W 13 19 7 10 1012.7 1012.7 0.4
21/07:30am 10.2 6.6 6.9 80 1.6 W 15 22 8 12 1012.3 1012.3 0.4
21/07:00am 9.8 5.6 5.6 75 1.9 W 17 24 9 13 1011.8 1011.8 0.4
21/06:30am 9.4 5.9 7.2 86 1.0 W 15 19 8 10 1011.5 1011.5 0.4
21/06:00am 9.4 5.4 6.7 83 1.3 WNW 17 26 9 14 1011.5 1011.5 0.2
21/05:30am 10.7 5.6 6.1 73 2.1 W 22 33 12 18 1011.1 1011.1 0.0
21/05:00am 12.3 7.6 5.2 62 3.3 W 19 28 10 15 1010.8 1010.8 0.0
21/04:30am 12.1 8.1 4.8 61 3.3 W 15 26 8 14 1010.7 1010.7 0.0
21/04:00am 11.9 7.2 5.1 63 3.1 W 19 30 10 16 1010.4 1010.4 0.0
21/03:30am 11.8 6.9 5.0 63 3.1 WSW 20 32 11 17 1010.5 1010.5 0.0
21/03:00am 12.5 7.9 5.4 62 3.3 WSW 19 28 10 15 1010.3 1010.3 0.0
21/02:30am 12.0 6.5 4.0 58 3.6 WSW 22 35 12 19 1010.1 1010.1 0.0
21/02:00am 12.5 6.2 3.7 55 3.9 WSW 26 39 14 21 1009.8 1009.8 0.0
21/01:30am 12.8 6.5 5.9 63 3.3 WSW 28 41 15 22 1009.6 1009.6 0.0
21/01:00am 12.6 5.7 4.6 58 3.7 WSW 30 44 16 24 1009.5 1009.5 0.0
21/12:32am 12.8 6.9 7.3 69 2.7 WSW 28 54 15 29 1008.8 1008.8 0.0
21/12:30am 12.7 7.1 7.2 69 2.7 WSW 26 41 14 22 1008.9 1008.9 0.0
21/12:22am 12.4 5.7 7.5 72 2.4 WSW 32 52 17 28 1008.9 1008.9 0.0
21/12:00am 13.2 6.1 6.5 64 3.2 WSW 33 50 18 27 1008.5 1008.5 0.0
 
Date/Time
CST
Temp
°C
App
Temp
°C
Dew
Point
°C
Rel
Hum
%
Delta-T
°C
Wind Press
QNH
hPa
Press
MSL
hPa
Rain since
9am
mm
Dir  Spd
km/h
Gust
km/h
Spd
kts
Gust
kts
20/11:43pm 13.1 6.3 6.9 66 3.0 WSW 32 52 17 28 1008.3 1008.3 0.0
20/11:30pm 13.3 5.9 6.9 65 3.1 WSW 35 52 19 28 1008.0 1008.0 0.0
20/11:04pm 13.9 7.2 7.4 65 3.2 W 32 52 17 28 1007.7 1007.7 0.0
20/11:00pm 14.0 7.2 7.5 65 3.2 W 33 50 18 27 1007.7 1007.7 0.0
20/10:48pm 14.0 7.2 7.8 66 3.1 W 33 54 18 29 1007.5 1007.5 0.0
20/10:30pm 14.4 7.5 9.0 70 2.8 W 35 48 19 26 1007.4 1007.4 0.0
20/10:00pm 14.7 8.2 8.0 64 3.4 W 32 50 17 27 1006.9 1006.9 0.0
20/09:32pm 15.0 9.0 8.7 66 3.2 W 30 50 16 27 1006.4 1006.4 0.0
20/09:30pm 15.0 8.6 8.7 66 3.2 W 32 50 17 27 1006.3 1006.3 0.0
20/09:09pm 15.3 10.0 9.7 69 2.9 W 28 46 15 25 1005.8 1005.9 0.0
20/09:00pm 15.4 9.6 9.5 68 3.1 W 30 39 16 21 1005.7 1005.8 0.0
20/08:31pm 16.1 10.2 10.4 69 3.0 WNW 32 54 17 29 1005.1 1005.2 0.0
20/08:30pm 16.1 10.2 10.4 69 3.0 WNW 32 50 17 27 1005.2 1005.3 0.0
20/08:12pm 16.2 11.0 10.3 68 3.1 WNW 28 46 15 25 1005.1 1005.2 0.0
20/08:00pm 16.3 11.0 9.9 66 3.4 WNW 28 39 15 21 1004.6 1004.6 0.0
20/07:33pm 16.5 10.5 8.7 60 4.0 WNW 30 52 16 28 1004.6 1004.6 0.0
20/07:30pm 16.5 10.9 8.7 60 4.0 WNW 28 44 15 24 1004.6 1004.6 0.0
20/07:00pm 15.8 9.3 8.3 61 3.8 NW 32 44 17 24 1004.0 1004.0 0.0
20/06:30pm 16.2 9.7 6.6 53 4.7 N 30 46 16 25 1002.0 1002.0 0.0
20/06:00pm 15.9 8.9 5.8 51 4.9 N 32 43 17 23 1001.8 1001.8 0.0
20/05:30pm 15.9 8.8 5.5 50 5.0 N 32 41 17 22 1001.7 1001.7 0.0
20/05:12pm 16.5 8.8 5.5 48 5.3 N 35 54 19 29 1001.7 1001.7 0.0
20/05:00pm 16.9 9.2 5.5 47 5.5 N 35 48 19 26 1001.8 1001.8 0.0
20/04:30pm 17.7 8.8 5.3 44 6.0 N 41 59 22 32 1001.9 1001.9 0.0
20/04:21pm 17.8 9.0 5.4 44 6.0 N 41 59 22 32 1001.8 1001.8 0.0
20/04:00pm 18.1 9.7 5.7 44 6.1 N 39 56 21 30 1001.9 1001.9 0.0
20/03:30pm 18.5 9.0 5.0 41 6.6 N 44 63 24 34 1002.3 1002.3 0.0
20/03:00pm 18.9 9.8 5.7 42 6.5 N 43 65 23 35 1003.1 1003.1 0.0
20/02:37pm 18.8 9.4 5.6 42 6.5 N 44 63 24 34 1003.4 1003.4 0.0
20/02:30pm 18.7 8.9 5.5 42 6.5 N 46 63 25 34 1003.5 1003.5 0.0
20/02:10pm 18.8 10.1 6.0 43 6.3 N 41 61 22 33 1004.0 1004.0 0.0
20/02:00pm 18.5 9.2 6.0 44 6.2 N 44 61 24 33 1004.1 1004.1 0.0
20/01:47pm 18.3 9.1 6.2 45 6.0 N 44 65 24 35 1004.1 1004.1 0.0
20/01:30pm 18.3 9.1 6.2 45 6.0 N 44 59 24 32 1004.5 1004.5 0.0
20/01:18pm 18.4 10.3 6.9 47 5.8 N 39 57 21 31 1004.9 1004.9 0.0
20/01:00pm 18.2 9.6 6.4 46 5.9 N 41 57 22 31 1005.2 1005.3 0.0
20/12:30pm 17.8 8.7 5.7 45 5.9 N 43 65 23 35 1005.9 1006.0 0.0
20/12:00pm 17.3 8.1 6.2 48 5.5 N 44 69 24 37 1006.8 1006.8 0.0
20/11:56am 17.4 8.4 6.3 48 5.5 N 43 61 23 33 1006.9 1006.9 0.0
20/11:30am 17.1 8.1 6.3 49 5.3 N 43 57 23 31 1007.5 1007.5 0.0
20/11:00am 16.6 8.4 6.7 52 4.9 N 39 54 21 29 1008.3 1008.3 0.0
20/10:31am 16.5 8.4 6.9 53 4.8 N 39 57 21 31 1008.9 1008.9 0.0
20/10:30am 16.4 7.9 7.1 54 4.6 N 41 57 22 31 1008.9 1008.9 0.0
20/10:00am 16.1 8.4 7.1 55 4.5 N 37 52 20 28 1009.6 1009.6 0.0
20/09:30am 15.4 7.7 6.9 57 4.2 N 37 46 20 25 1009.9 1009.9 0.0
20/09:00am 14.8 7.8 6.9 59 3.9 N 33 50 18 27 1010.0 1010.0 0.2
20/08:30am 14.0 7.2 7.1 63 3.4 N 32 43 17 23 1010.4 1010.4 0.2
20/08:00am 13.1 6.7 7.1 67 2.9 N 30 39 16 21 1010.6 1010.6 0.2
20/07:30am 11.9 6.3 7.2 73 2.3 N 26 35 14 19 1010.6 1010.6 0.2
20/07:00am 12.1 6.8 7.0 71 2.5 N 24 33 13 18 1010.8 1010.8 0.2
20/06:30am 11.8 6.6 7.1 73 2.3 N 24 32 13 17 1010.9 1010.9 0.2
20/06:00am 11.3 6.4 6.8 74 2.1 N 22 30 12 16 1011.1 1011.1 0.2
20/05:30am 11.7 6.4 7.0 73 2.3 N 24 30 13 16 1011.1 1011.1 0.2
20/05:00am 12.0 7.1 6.9 71 2.4 N 22 32 12 17 1011.3 1011.3 0.2
20/04:30am 11.8 6.5 6.9 72 2.3 N 24 30 13 16 1011.4 1011.4 0.2
20/04:00am 11.9 6.6 7.0 72 2.4 N 24 30 13 16 1011.7 1011.7 0.2
20/03:30am 12.1 6.9 7.2 72 2.4 N 24 32 13 17 1012.0 1012.0 0.2
20/03:00am 11.9 7.0 7.0 72 2.4 N 22 28 12 15 1012.3 1012.3 0.2
20/02:30am 11.7 6.9 7.2 74 2.2 N 22 30 12 16 1012.6 1012.6 0.2
20/02:00am 11.4 6.5 7.1 75 2.1 N 22 30 12 16 1012.8 1012.8 0.2
20/01:30am 11.8 7.0 7.3 74 2.2 N 22 32 12 17 1013.0 1013.0 0.2
20/01:00am 11.9 7.2 7.6 75 2.1 N 22 30 12 16 1013.5 1013.5 0.2
20/12:30am 11.9 7.2 7.8 76 2.0 N 22 28 12 15 1013.9 1013.9 0.2
20/12:00am 11.4 7.1 7.9 79 1.7 N 20 28 11 15 1014.3 1014.3 0.2
 
Date/Time
CST
Temp
°C
App
Temp
°C
Dew
Point
°C
Rel
Hum
%
Delta-T
°C
Wind Press
QNH
hPa
Press
MSL
hPa
Rain since
9am
mm
Dir  Spd
km/h
Gust
km/h
Spd
kts
Gust
kts
19/11:30pm 10.8 6.7 8.0 83 1.4 N 19 24 10 13 1014.7 1014.7 0.2
19/11:00pm 10.8 6.8 8.2 84 1.3 N 19 24 10 13 1015.0 1015.0 0.2
19/10:30pm 10.5 6.7 7.7 83 1.3 N 17 20 9 11 1015.3 1015.3 0.2
19/10:00pm 10.2 6.3 7.1 81 1.5 N 17 20 9 11 1015.6 1015.6 0.2
19/09:30pm 10.2 6.6 6.9 80 1.6 N 15 17 8 9 1015.6 1015.6 0.2
19/09:00pm 10.2 6.6 6.7 79 1.6 N 15 17 8 9 1015.9 1015.9 0.2
19/08:30pm 10.1 6.9 6.8 80 1.6 N 13 17 7 9 1016.1 1016.1 0.2
19/08:00pm 10.4 6.8 6.9 79 1.7 N 15 17 8 9 1016.1 1016.1 0.2
19/07:30pm 10.5 7.0 7.2 80 1.6 N 15 19 8 10 1016.3 1016.3 0.2
19/07:00pm 10.4 6.8 6.9 79 1.7 N 15 19 8 10 1016.4 1016.4 0.2
19/06:30pm 10.8 7.7 7.3 79 1.7 N 13 17 7 9 1016.4 1016.4 0.2
19/06:00pm 11.4 8.3 7.1 75 2.1 N 13 15 7 8 1016.4 1016.4 0.2
19/05:30pm 12.9 9.4 7.4 69 2.7 N 15 17 8 9 1016.4 1016.4 0.2
19/05:00pm 14.4 11.2 6.7 60 3.7 N 13 19 7 10 1016.4 1016.4 0.2
19/04:30pm 15.2 11.2 6.7 57 4.1 N 17 20 9 11 1016.6 1016.6 0.2
19/04:00pm 15.9 12.6 7.9 59 4.0 NNW 15 22 8 12 1016.6 1016.6 0.2
19/03:30pm 16.1 11.8 7.8 58 4.2 N 20 28 11 15 1016.9 1016.9 0.2
19/03:00pm 16.3 11.2 7.8 57 4.3 NNW 24 30 13 16 1017.0 1017.0 0.2
19/02:30pm 16.5 11.5 6.6 52 4.9 NNW 22 30 12 16 1017.1 1017.1 0.2
19/02:00pm 16.5 11.3 7.2 54 4.6 NNW 24 33 13 18 1017.3 1017.3 0.2
19/01:30pm 16.4 11.6 7.3 55 4.5 NNW 22 32 12 17 1017.8 1017.8 0.2
19/01:00pm 16.3 11.2 7.8 57 4.3 N 24 32 13 17 1018.1 1018.1 0.2
19/12:30pm 16.1 11.2 8.3 60 4.0 N 24 33 13 18 1018.5 1018.5 0.2
19/12:00pm 15.9 10.9 9.6 66 3.3 NNW 26 32 14 17 1018.9 1018.9 0.2
19/11:30am 15.6 10.7 9.9 69 3.0 NNW 26 35 14 19 1019.5 1019.5 0.2
19/11:00am 15.3 10.6 10.5 73 2.5 N 26 32 14 17 1019.9 1019.9 0.0
19/10:30am 14.9 11.0 10.9 77 2.1 NNW 22 32 12 17 1020.3 1020.3 0.0
19/10:00am 14.1 10.4 11.4 84 1.4 N 22 30 12 16 1020.4 1020.4 0.0
19/09:30am 13.4 12.0 12.1 92 0.7 NNW 11 15 6 8 1020.4 1020.4 0.0
19/09:00am 11.8 10.8 11.0 95 0.4 NNW 7 11 4 6 1020.2 1020.2 0.2
19/08:30am 10.1 8.6 9.3 95 0.4 NNW 7 11 4 6 1020.0 1020.0 0.2
19/08:00am 10.5 8.4 9.9 96 0.3 NW 11 13 6 7 1019.6 1019.6 0.2
19/07:30am 9.9 7.7 9.3 96 0.3 NNW 11 13 6 7 1019.6 1019.6 0.2
19/07:00am 10.2 7.7 9.6 96 0.3 NNW 13 15 7 8 1019.6 1019.6 0.2
19/06:30am 10.0 8.6 9.4 96 0.3 NNW 7 9 4 5 1019.4 1019.4 0.2
19/06:00am 10.9 8.6 10.3 96 0.3 NW 13 15 7 8 1019.1 1019.1 0.2
19/05:30am 10.6 8.6 10.0 96 0.3 NW 11 13 6 7 1018.9 1018.9 0.2
19/05:00am 11.2 9.3 10.6 96 0.3 NW 11 13 6 7 1018.9 1018.9 0.2
19/04:30am 11.2 9.3 10.6 96 0.3 NW 11 13 6 7 1018.9 1018.9 0.2
19/04:00am 11.3 9.1 10.7 96 0.3 WNW 13 17 7 9 1018.9 1018.9 0.2
19/03:30am 10.9 8.6 10.3 96 0.3 NW 13 15 7 8 1019.2 1019.2 0.0
19/03:00am 11.3 9.0 10.5 95 0.4 NW 13 15 7 8 1019.4 1019.4 0.0
19/02:30am 11.6 9.4 10.8 95 0.4 NW 13 17 7 9 1019.7 1019.7 0.0
19/02:00am 11.7 9.5 10.9 95 0.4 NW 13 17 7 9 1019.6 1019.6 0.0
19/01:30am 11.6 9.0 10.8 95 0.4 NW 15 20 8 11 1019.6 1019.6 0.0
19/01:00am 11.3 8.6 10.4 94 0.5 NW 15 17 8 9 1019.5 1019.5 0.0
19/12:30am 11.8 9.3 10.9 94 0.5 NW 15 19 8 10 1019.6 1019.6 0.0
19/12:00am 11.8 9.2 10.7 93 0.6 NW 15 19 8 10 1019.5 1019.5 0.0
 
Date/Time
CST
Temp
°C
App
Temp
°C
Dew
Point
°C
Rel
Hum
%
Delta-T
°C
Wind Press
QNH
hPa
Press
MSL
hPa
Rain since
9am
mm
Dir  Spd
km/h
Gust
km/h
Spd
kts
Gust
kts
18/11:30pm 12.0 9.4 10.7 92 0.7 NW 15 19 8 10 1019.4 1019.4 0.0
18/11:00pm 12.1 9.5 10.7 91 0.7 NW 15 19 8 10 1019.4 1019.4 0.0
18/10:30pm 12.4 9.4 10.6 89 0.9 NW 17 22 9 12 1019.4 1019.4 0.0

Other formats

Comma delimited format used in spreadsheet applications
http://www.bom.gov.au/fwo/IDS60801/IDS60801.95806.axf

JavaScript Object Notation format (JSON) in row-major order
http://www.bom.gov.au/fwo/IDS60801/IDS60801.95806.json

Data quality

Most of these data are generated automatically and are frequently updated. Quality checks on data are not normally performed. It is possible for incorrect values to appear. Refer to information at About Latest Weather Observations and please check the disclaimer before using these data.